Eastern Wv Regional Shepherd Field
KMRB : rendu visible

Aérodrome :











RETROUVEZ-NOUS SUR...

 
LOGIN :

S'inscrire | Disclaimer

   EN    FR    IT 

 









Légende :    VFR   VFR Marginal   IFR   IFR Intensif   IFR Très Intensif
Visi : 
Plafond : 
>= 8 km
>= 3000ft
5 à 8 km
1000 à 3000 ft
1500m à 5 km
500 à 1000 ft
800 à 1500m
200 à 500 ft
< 800m
< 200 ft
Symboles :   Orages  Brouillard  Fortes neiges  Fortes précipitations  Vent > 20 kt






- Altitude de l'aérodrome : 565 ft


KMRB - Eastern Wv Regional Shepherd Field

DERNIER METAR :
  • 201153Z 31007KT 10SM OVC060 07/02 A3000 RMK AO2 SLP159 T00720017 10078 20067 53022

METARs EXPIRÉS :
  • 201053Z AUTO 30009KT 8SM OVC065 07/02 A2997 RMK AO2 SLP149 T00720017
  • 200953Z AUTO 29006KT 9SM SCT039 OVC065 07/02 A2994 RMK AO2 SLP142 T00720017

TAF KMRB
Valide du 20 à 12h jusqu'au 21 à 12h UTC


201141Z 2012/2112 30009KT P6SM OVC050
FM201500 32010G17KT P6SM BKN045
FM202100 31011KT P6SM SCT050
FM210600 30005KT P6SM SKC



MET'MAP, la Météo Aéronautique d'un coup d'oeil ! - Copyright ORBIFLY Décembre 2007 - Disclaimer

ORBIFLY MET'MAP TEAM :

Programmation & Développement : Alexandra Zaïnal
Conception & Développement : Baudouin d'Aumeries
Co-Programmation & Développement : Marc-Olivier Méhu
Soutien technique & logistique : Manuel Goepfert

Contact : metmap@orbifly.com




SOURCES & CREDITS :

   NOAA       Earth
Advisory